createdAt,value
2018-05-13T00:00:02.739Z,14.33
2018-05-13T00:02:49.691Z,39.83
2018-05-13T00:05:21.472Z,32.97
2018-05-13T00:07:51.036Z,13.47
2018-05-13T00:10:21.875Z,11.43
2018-05-13T00:13:00.924Z,11.73
2018-05-13T00:15:31.581Z,11.67
2018-05-13T00:18:10.820Z,12.50
2018-05-13T00:20:50.101Z,14.53
2018-05-13T00:23:29.039Z,10.80
2018-05-13T00:26:01.834Z,12.03
2018-05-13T00:28:32.101Z,11.83
2018-05-13T00:31:09.090Z,15.83
2018-05-13T00:33:38.512Z,14.20
2018-05-13T00:36:08.691Z,17.47
2018-05-13T00:38:43.834Z,19.00
2018-05-13T00:41:14.174Z,11.07
2018-05-13T00:43:43.824Z,13.90
2018-05-13T00:46:13.708Z,18.20
2018-05-13T00:48:45.160Z,10.50
2018-05-13T00:51:21.579Z,11.20
2018-05-13T00:53:58.115Z,29.77
2018-05-13T00:56:27.750Z,12.27
2018-05-13T00:59:04.428Z,10.27
2018-05-13T01:01:38.988Z,11.23
2018-05-13T01:04:17.279Z,13.60
2018-05-13T01:06:48.392Z,8.83
2018-05-13T01:09:18.912Z,11.57
2018-05-13T01:11:51.116Z,12.43
2018-05-13T01:14:21.506Z,19.10
2018-05-13T01:16:52.437Z,11.17
2018-05-13T01:19:25.994Z,49.43
2018-05-13T01:21:55.407Z,12.23
2018-05-13T01:24:32.516Z,24.77
2018-05-13T01:27:03.050Z,24.53
2018-05-13T01:29:33.776Z,35.10
2018-05-13T01:32:06.050Z,14.50
2018-05-13T01:34:35.988Z,15.93
2018-05-13T01:37:07.334Z,13.97
2018-05-13T01:39:38.040Z,19.37
2018-05-13T01:42:08.736Z,10.47
2018-05-13T01:44:38.638Z,19.67
2018-05-13T01:47:09.727Z,9.93
2018-05-13T01:49:43.845Z,9.50
2018-05-13T01:52:13.347Z,14.40
2018-05-13T01:54:48.478Z,11.13
2018-05-13T01:57:19.647Z,11.57
2018-05-13T01:59:51.467Z,13.23
2018-05-13T02:02:24.264Z,19.90
2018-05-13T02:04:56.163Z,12.93
2018-05-13T02:07:33.579Z,11.77
2018-05-13T02:10:06.375Z,18.80
2018-05-13T02:12:36.419Z,18.83
2018-05-13T02:15:06.056Z,11.90
2018-05-13T02:17:39.004Z,22.73
2018-05-13T02:20:14.918Z,12.47
2018-05-13T02:22:48.576Z,12.70
2018-05-13T02:25:21.919Z,10.70
2018-05-13T02:27:52.289Z,10.67
2018-05-13T02:30:21.770Z,10.47
2018-05-13T02:32:51.503Z,10.33
2018-05-13T02:35:20.766Z,10.07
2018-05-13T02:37:51.553Z,9.67
2018-05-13T02:40:21.092Z,11.60
2018-05-13T02:42:51.534Z,11.70
2018-05-13T02:45:28.141Z,53.47
2018-05-13T02:48:01.793Z,9.33
2018-05-13T02:50:39.281Z,9.50
2018-05-13T02:53:14.302Z,18.40
2018-05-13T02:55:56.186Z,16.50
2018-05-13T02:58:40.521Z,10.73
2018-05-13T03:01:15.823Z,10.10
2018-05-13T03:03:56.160Z,12.00
2018-05-13T03:06:33.927Z,10.60
2018-05-13T03:09:03.220Z,9.40
2018-05-13T03:11:34.913Z,8.73
2018-05-13T03:14:13.351Z,6.70
2018-05-13T03:16:42.629Z,8.10
2018-05-13T03:19:11.978Z,6.27
2018-05-13T03:21:45.673Z,7.43
2018-05-13T03:24:14.803Z,7.00
2018-05-13T03:26:45.651Z,7.47
2018-05-13T03:29:15.285Z,11.20
2018-05-13T03:31:45.103Z,7.07
2018-05-13T03:34:15.942Z,7.00
2018-05-13T03:36:45.882Z,7.37
2018-05-13T03:39:15.727Z,7.13
2018-05-13T03:41:46.768Z,8.07
2018-05-13T03:44:16.784Z,7.90
2018-05-13T03:47:17.069Z,8.00
2018-05-13T03:49:51.506Z,8.23
2018-05-13T03:52:35.262Z,7.10
2018-05-13T03:55:07.869Z,7.40
2018-05-13T03:57:36.826Z,8.63
2018-05-13T04:00:10.572Z,7.67
2018-05-13T04:02:46.721Z,7.10
2018-05-13T04:05:18.909Z,7.90
2018-05-13T04:07:56.659Z,7.93
2018-05-13T04:14:46.410Z,8.00
2018-05-13T04:17:20.861Z,7.70
2018-05-13T04:19:55.469Z,7.10
2018-05-13T04:22:25.374Z,9.73
2018-05-13T04:25:01.167Z,11.50
2018-05-13T04:27:35.297Z,8.23
2018-05-13T04:30:09.066Z,8.60
2018-05-13T04:32:43.615Z,7.70
2018-05-13T04:35:22.526Z,7.83
2018-05-13T04:38:03.088Z,11.63
2018-05-13T04:40:48.453Z,9.80
2018-05-13T04:43:25.521Z,7.23
2018-05-13T04:45:57.104Z,8.30
2018-05-13T04:48:39.551Z,8.80
2018-05-13T04:51:13.102Z,8.60
2018-05-13T04:53:48.608Z,7.80
2018-05-13T04:56:21.959Z,9.37
2018-05-13T04:58:56.076Z,10.17
2018-05-13T05:01:25.021Z,10.07
2018-05-13T05:03:54.052Z,9.53
2018-05-13T05:06:23.152Z,10.37
2018-05-13T05:08:52.464Z,9.80
2018-05-13T05:11:21.764Z,9.60
2018-05-13T05:13:51.548Z,11.03
2018-05-13T05:16:21.286Z,12.33
2018-05-13T05:18:50.643Z,12.30
2018-05-13T05:21:19.614Z,12.27
2018-05-13T05:23:48.566Z,11.17
2018-05-13T05:26:18.155Z,12.90
2018-05-13T05:28:51.588Z,13.30
2018-05-13T05:31:23.293Z,11.73
2018-05-13T05:33:53.552Z,15.20
2018-05-13T05:36:23.690Z,12.30
2018-05-13T05:38:57.341Z,13.00
2018-05-13T05:41:30.452Z,12.17
2018-05-13T05:44:02.128Z,10.33
2018-05-13T05:46:31.198Z,11.27
2018-05-13T05:49:01.106Z,10.20
2018-05-13T05:51:33.298Z,11.47
2018-05-13T05:54:03.507Z,10.07
2018-05-13T05:56:34.934Z,11.50
2018-05-13T05:59:04.126Z,12.00
2018-05-13T06:01:34.788Z,11.67
2018-05-13T06:04:03.784Z,11.50
2018-05-13T06:06:33.211Z,10.47
2018-05-13T06:09:03.830Z,12.07
2018-05-13T06:11:36.051Z,11.63
2018-05-13T06:14:08.345Z,11.60
2018-05-13T06:16:37.528Z,12.50
2018-05-13T06:19:08.527Z,11.80
2018-05-13T06:21:41.954Z,12.50
2018-05-13T06:24:10.972Z,11.60
2018-05-13T06:26:45.535Z,12.30
2018-05-13T06:29:15.502Z,10.97
2018-05-13T06:31:51.074Z,10.23
2018-05-13T06:34:24.724Z,11.80
2018-05-13T06:37:07.555Z,10.57
2018-05-13T06:39:42.777Z,11.10
2018-05-13T06:42:19.479Z,11.60
2018-05-13T06:45:07.401Z,13.73
2018-05-13T06:47:37.097Z,15.37
2018-05-13T06:50:06.874Z,16.97
2018-05-13T06:52:40.813Z,17.70
2018-05-13T06:55:10.799Z,18.43
2018-05-13T06:57:47.243Z,18.70
2018-05-13T07:00:20.547Z,22.33
2018-05-13T07:03:00.483Z,21.43
2018-05-13T07:05:31.967Z,21.30
2018-05-13T07:08:04.227Z,22.97
2018-05-13T07:10:33.735Z,23.23
2018-05-13T07:13:03.021Z,24.70
2018-05-13T07:15:44.739Z,28.03
2018-05-13T07:18:19.824Z,28.10
2018-05-13T07:20:58.306Z,29.13
2018-05-13T07:23:28.165Z,29.90
2018-05-13T07:25:59.637Z,28.20
2018-05-13T07:28:42.656Z,28.23
2018-05-13T07:31:21.683Z,28.93
2018-05-13T07:33:57.750Z,30.90
2018-05-13T07:36:34.899Z,32.47
2018-05-13T07:39:06.766Z,35.17
2018-05-13T07:41:35.921Z,34.10
2018-05-13T07:44:05.197Z,45.27
2018-05-13T07:46:35.164Z,40.27
2018-05-13T07:49:04.493Z,41.33
2018-05-13T07:51:33.666Z,44.93
2018-05-13T07:54:02.728Z,49.87
2018-05-13T07:56:31.769Z,48.53
2018-05-13T07:59:02.379Z,53.90
2018-05-13T08:01:31.892Z,53.20
2018-05-13T08:04:01.064Z,50.70
2018-05-13T08:06:30.518Z,51.13
2018-05-13T08:09:01.357Z,54.90
2018-05-13T08:11:33.562Z,55.50
2018-05-13T08:14:05.426Z,51.67
2018-05-13T08:16:35.326Z,57.90
2018-05-13T08:19:14.804Z,54.53
2018-05-13T08:21:49.529Z,55.20
2018-05-13T08:24:22.516Z,57.97
2018-05-13T08:26:52.677Z,60.13
2018-05-13T08:29:24.527Z,59.80
2018-05-13T08:31:56.198Z,59.70
2018-05-13T08:34:26.364Z,60.30
2018-05-13T08:36:58.535Z,62.30
2018-05-13T08:39:31.269Z,61.73
2018-05-13T08:42:01.175Z,58.10
2018-05-13T08:44:31.775Z,60.00
2018-05-13T08:47:01.115Z,62.73
2018-05-13T08:49:35.576Z,60.43
2018-05-13T08:52:05.328Z,54.30
2018-05-13T08:54:36.718Z,55.73
2018-05-13T08:57:09.070Z,52.27
2018-05-13T08:59:46.689Z,54.30
2018-05-13T09:02:19.090Z,68.30
2018-05-13T09:04:53.196Z,58.90
2018-05-13T09:07:23.211Z,56.43
2018-05-13T09:09:52.598Z,50.00
2018-05-13T09:12:22.648Z,49.97
2018-05-13T09:14:52.203Z,53.13
2018-05-13T09:17:22.869Z,53.37
2018-05-13T09:19:53.532Z,60.10
2018-05-13T09:22:29.787Z,59.47
2018-05-13T09:25:01.727Z,56.27
2018-05-13T09:28:01.312Z,62.70
2018-05-13T09:30:30.848Z,59.57
2018-05-13T09:32:59.857Z,60.30
2018-05-13T09:35:34.550Z,62.40
2018-05-13T09:38:11.801Z,66.80
2018-05-13T09:40:41.568Z,68.63
2018-05-13T09:43:16.905Z,63.90
2018-05-13T09:45:47.409Z,60.13
2018-05-13T09:48:21.671Z,69.47
2018-05-13T09:50:53.543Z,65.97
2018-05-13T09:53:25.128Z,66.93
2018-05-13T09:55:56.198Z,71.37
2018-05-13T09:58:26.318Z,69.20
2018-05-13T10:01:00.075Z,67.00
2018-05-13T10:03:30.386Z,70.27
2018-05-13T10:06:03.543Z,71.87
2018-05-13T10:08:33.320Z,66.93
2018-05-13T10:11:03.437Z,75.33
2018-05-13T10:13:33.280Z,70.83
2018-05-13T10:16:05.552Z,76.67
2018-05-13T10:18:36.353Z,77.03
2018-05-13T10:21:07.399Z,69.13
2018-05-13T10:23:37.892Z,70.80
2018-05-13T10:27:37.300Z,82.20
2018-05-13T10:30:07.352Z,70.20
2018-05-13T10:32:37.814Z,81.63
2018-05-13T10:35:10.095Z,81.07
2018-05-13T10:37:39.429Z,79.83
2018-05-13T10:40:23.407Z,83.97
2018-05-13T10:42:52.817Z,82.27
2018-05-13T10:45:23.444Z,88.97
2018-05-13T10:47:52.939Z,89.60
2018-05-13T10:50:23.021Z,84.97
2018-05-13T10:52:52.386Z,90.77
2018-05-13T10:55:22.584Z,95.60
2018-05-13T10:57:59.923Z,79.03
2018-05-13T11:00:35.070Z,83.20
2018-05-13T11:03:06.014Z,79.23
2018-05-13T11:05:35.634Z,77.70
2018-05-13T11:08:05.557Z,75.43
2018-05-13T11:10:35.968Z,79.10
2018-05-13T11:13:08.085Z,79.40
2018-05-13T11:15:38.311Z,80.63
2018-05-13T11:18:09.313Z,76.77
2018-05-13T11:20:40.670Z,72.63
2018-05-13T11:23:11.027Z,82.27
2018-05-13T11:25:40.617Z,79.93
2018-05-13T11:28:11.341Z,75.73
2018-05-13T11:30:41.587Z,80.50
2018-05-13T11:33:11.833Z,75.03
2018-05-13T11:35:42.588Z,82.60
2018-05-13T11:38:15.494Z,81.17
2018-05-13T11:40:46.008Z,77.40
2018-05-13T11:43:15.585Z,81.40
2018-05-13T11:45:47.832Z,87.23
2018-05-13T12:22:14.861Z,79.93
2018-05-13T12:24:53.181Z,83.10
2018-05-13T12:27:36.145Z,85.33
2018-05-13T12:30:40.090Z,75.23
2018-05-13T12:33:19.325Z,80.00
2018-05-13T12:36:36.361Z,111.80
